Time;durP1;ratioP1;P1;durP2;ratioP2;P2;SDS_P1;SDS_P2;PMS_P1;PMS_P2;Temp;Humidity;BMP_temperature;BMP_pressure;BME280_temperature;BME280_humidity;BME280_pressure;Samples;Min_cycle;Max_cycle;Signal;HPM_P1;HPM_P2
2024/01/31 00:01:01;;;;;;;50.63;28.03;;;3.70;96.10;;;;;;6213735;23;20040;-70
2024/01/31 00:03:27;;;;;;;53.40;28.43;;;3.70;94.10;;;;;;6214106;23;20012;-72
2024/01/31 00:05:53;;;;;;;61.70;29.10;;;3.70;93.90;;;;;;6213582;23;20001;-73
2024/01/31 00:08:18;;;;;;;54.73;28.80;;;3.70;93.90;;;;;;6213503;23;20011;-73
2024/01/31 00:10:44;;;;;;;55.63;29.17;;;3.70;93.90;;;;;;6187075;23;20092;-73
2024/01/31 00:13:10;;;;;;;53.70;28.27;;;3.70;93.80;;;;;;6213589;23;20104;-73
2024/01/31 00:15:36;;;;;;;56.43;26.03;;;3.70;94.20;;;;;;6213718;23;20004;-72
2024/01/31 00:18:01;;;;;;;40.83;23.70;;;3.60;94.30;;;;;;6213333;23;19996;-73
2024/01/31 00:20:27;;;;;;;45.53;24.10;;;3.50;94.40;;;;;;6213466;23;20104;-72
2024/01/31 00:22:53;;;;;;;44.43;24.43;;;3.40;95.30;;;;;;6213239;23;20020;-73
2024/01/31 00:25:19;;;;;;;39.70;22.77;;;3.50;97.20;;;;;;6213475;23;20000;-72
2024/01/31 00:27:45;;;;;;;40.80;21.83;;;3.40;96.80;;;;;;6213580;23;20004;-73
2024/01/31 00:30:11;;;;;;;44.00;22.87;;;3.40;96.80;;;;;;6213316;23;20343;-73
2024/01/31 00:32:37;;;;;;;47.73;23.60;;;3.40;97.00;;;;;;6211629;23;20016;-73
2024/01/31 00:35:03;;;;;;;45.13;22.43;;;3.40;97.00;;;;;;6213648;23;20004;-73
2024/01/31 00:37:28;;;;;;;43.07;23.27;;;3.40;96.70;;;;;;6213696;23;20008;-73
2024/01/31 00:39:54;;;;;;;45.20;23.40;;;3.40;96.70;;;;;;6214241;23;20375;-73
2024/01/31 00:42:20;;;;;;;54.10;23.83;;;3.30;96.50;;;;;;6213302;23;20022;-73
2024/01/31 00:44:46;;;;;;;47.30;24.17;;;3.40;96.90;;;;;;6213592;23;20367;-73
2024/01/31 00:47:12;;;;;;;42.93;22.27;;;3.40;96.90;;;;;;6213845;23;20012;-73
2024/01/31 00:49:37;;;;;;;41.43;19.80;;;3.40;97.20;;;;;;6213301;23;20005;-73
2024/01/31 00:52:04;;;;;;;37.63;20.10;;;3.30;97.40;;;;;;6213238;23;20483;-73
2024/01/31 00:54:30;;;;;;;33.23;19.43;;;3.30;97.50;;;;;;6213084;23;20096;-73
2024/01/31 00:56:55;;;;;;;34.67;19.77;;;3.30;97.80;;;;;;6213678;23;20084;-70
2024/01/31 00:59:21;;;;;;;35.83;18.90;;;3.30;98.00;;;;;;6212953;23;20012;-70
2024/01/31 01:01:47;;;;;;;37.43;18.30;;;3.30;98.10;;;;;;6213000;23;20008;-70
2024/01/31 01:04:13;;;;;;;32.30;17.30;;;3.40;98.10;;;;;;6212691;23;20331;-73
2024/01/31 01:06:41;;;;;;;29.30;17.27;;;3.40;98.00;;;;;;6213443;23;20005;-73
2024/01/31 01:09:07;;;;;;;29.17;16.30;;;3.40;98.30;;;;;;6212847;23;20140;-73
2024/01/31 01:11:33;;;;;;;28.87;14.77;;;3.40;98.40;;;;;;6186263;23;20040;-73
2024/01/31 01:13:59;;;;;;;26.73;14.57;;;3.40;98.30;;;;;;6212961;23;20080;-73
2024/01/31 01:16:25;;;;;;;34.70;15.30;;;3.40;98.30;;;;;;6186695;23;20004;-73
2024/01/31 01:18:50;;;;;;;30.47;14.43;;;3.30;98.50;;;;;;6213336;23;20013;-73
2024/01/31 01:21:16;;;;;;;26.77;15.37;;;3.30;98.40;;;;;;6212911;23;20067;-73
2024/01/31 01:23:42;;;;;;;27.40;15.70;;;3.30;98.50;;;;;;6214571;23;20016;-73
2024/01/31 01:26:07;;;;;;;30.07;16.87;;;3.40;98.50;;;;;;6215262;23;20066;-73
2024/01/31 01:28:33;;;;;;;26.97;14.87;;;3.40;98.50;;;;;;6216236;23;20000;-73
2024/01/31 01:30:59;;;;;;;27.90;15.60;;;3.30;98.60;;;;;;6216721;23;20007;-74
2024/01/31 01:33:25;;;;;;;29.37;16.53;;;3.30;98.60;;;;;;6216295;23;20081;-73
2024/01/31 01:35:50;;;;;;;35.17;18.03;;;3.30;98.80;;;;;;6216562;23;20004;-73
2024/01/31 01:38:16;;;;;;;33.43;17.97;;;3.30;98.80;;;;;;6216254;23;20031;-73
2024/01/31 01:40:45;;;;;;;40.63;19.20;;;3.30;98.50;;;;;;6216579;23;19997;-70
2024/01/31 01:43:18;;;;;;;31.20;16.60;;;3.30;98.50;;;;;;6216491;23;20013;-73
2024/01/31 01:45:44;;;;;;;25.80;14.45;;;3.20;98.50;;;;;;6216527;23;20009;-73
2024/01/31 01:48:17;;;;;;;29.33;15.63;;;3.20;98.50;;;;;;6216436;23;20000;-70
2024/01/31 01:50:44;;;;;;;25.43;13.63;;;3.10;98.50;;;;;;6216120;23;20006;-73
2024/01/31 01:53:10;;;;;;;20.23;12.03;;;3.10;98.60;;;;;;6216469;23;20000;-74
2024/01/31 01:55:39;;;;;;;20.37;11.60;;;3.10;98.10;;;;;;6216418;23;20016;-73
2024/01/31 01:58:05;;;;;;;25.93;12.13;;;3.10;98.30;;;;;;6214539;23;20000;-70
2024/01/31 02:00:33;;;;;;;19.53;11.43;;;3.10;99.30;;;;;;6213051;23;20005;-73
2024/01/31 02:03:00;;;;;;;21.27;11.50;;;3.00;98.10;;;;;;6212793;23;20016;-73
2024/01/31 02:05:28;;;;;;;25.60;12.43;;;3.10;97.80;;;;;;6214517;23;20372;-73
2024/01/31 02:07:55;;;;;;;22.07;11.30;;;3.00;97.60;;;;;;6215603;23;20031;-73
2024/01/31 02:10:20;;;;;;;22.27;12.57;;;3.00;97.90;;;;;;6215722;23;20007;-70
2024/01/31 02:12:46;;;;;;;21.90;12.03;;;3.00;98.10;;;;;;6215148;23;20024;-71
2024/01/31 02:15:12;;;;;;;24.07;12.33;;;3.00;98.30;;;;;;6215841;23;20032;-71
2024/01/31 02:17:37;;;;;;;22.97;12.00;;;3.00;98.40;;;;;;6216105;23;20000;-69
2024/01/31 02:20:04;;;;;;;20.10;12.17;;;3.00;98.70;;;;;;6215489;23;20427;-70
2024/01/31 02:22:30;;;;;;;20.27;12.53;;;3.00;98.80;;;;;;6215569;23;20441;-70
2024/01/31 02:24:56;;;;;;;20.83;11.83;;;3.00;98.80;;;;;;6215422;23;20014;-70
2024/01/31 02:27:21;;;;;;;21.33;13.00;;;3.00;98.80;;;;;;6216187;23;20024;-71
2024/01/31 02:29:47;;;;;;;23.70;13.77;;;3.00;98.90;;;;;;6215852;23;20005;-73
2024/01/31 02:32:13;;;;;;;23.80;13.67;;;3.00;98.60;;;;;;6215726;23;20023;-71
2024/01/31 02:34:39;;;;;;;27.03;14.40;;;3.00;98.70;;;;;;6215773;23;20070;-71
2024/01/31 02:37:04;;;;;;;27.63;16.33;;;3.00;98.80;;;;;;6215358;23;20007;-70
2024/01/31 02:39:31;;;;;;;30.40;14.77;;;3.00;98.90;;;;;;6215649;23;20013;-71
2024/01/31 02:41:57;;;;;;;26.67;14.00;;;2.90;98.90;;;;;;6216438;23;20323;-71
2024/01/31 02:44:23;;;;;;;24.97;14.27;;;3.00;99.20;;;;;;6214856;23;20044;-71
2024/01/31 02:46:49;;;;;;;26.33;14.80;;;2.90;98.80;;;;;;6215672;23;19996;-72
2024/01/31 02:49:14;;;;;;;24.63;14.10;;;2.90;98.90;;;;;;6215412;23;20004;-72
2024/01/31 02:51:40;;;;;;;25.87;14.63;;;2.90;98.90;;;;;;6216044;23;20123;-71
2024/01/31 02:54:06;;;;;;;29.13;14.37;;;2.80;98.90;;;;;;6215579;23;20009;-72
2024/01/31 02:56:32;;;;;;;25.03;13.93;;;2.80;98.50;;;;;;6215535;23;19996;-71
2024/01/31 02:58:57;;;;;;;26.50;14.10;;;2.80;98.70;;;;;;6215835;23;20005;-71
2024/01/31 03:01:23;;;;;;;25.07;12.73;;;2.80;98.50;;;;;;6189275;23;20009;-72
2024/01/31 03:03:49;;;;;;;24.97;13.43;;;2.80;97.90;;;;;;6215303;23;20009;-72
2024/01/31 03:06:14;;;;;;;29.40;14.47;;;2.90;96.90;;;;;;6215520;23;20072;-71
2024/01/31 03:08:40;;;;;;;24.60;14.50;;;2.90;96.80;;;;;;6215415;23;20001;-72
2024/01/31 03:11:06;;;;;;;30.40;15.33;;;2.90;96.70;;;;;;6215521;23;19997;-72
2024/01/31 03:13:31;;;;;;;27.53;15.30;;;2.90;96.90;;;;;;6215295;23;20004;-71
2024/01/31 03:15:57;;;;;;;24.93;14.37;;;2.80;97.00;;;;;;6215500;23;19996;-71
2024/01/31 03:18:23;;;;;;;28.50;15.13;;;2.80;97.00;;;;;;6215540;23;20004;-72
2024/01/31 03:20:54;;;;;;;25.80;15.30;;;2.70;97.00;;;;;;6215215;23;20015;-72
2024/01/31 03:23:20;;;;;;;28.33;15.47;;;2.80;97.00;;;;;;6215586;23;20016;-71
2024/01/31 03:25:45;;;;;;;25.27;14.33;;;2.70;97.20;;;;;;6215488;23;20001;-72
2024/01/31 03:28:11;;;;;;;24.80;14.33;;;2.70;97.40;;;;;;6215662;23;20000;-71
2024/01/31 03:30:37;;;;;;;27.30;15.60;;;2.70;98.10;;;;;;6213887;23;20008;-72
2024/01/31 03:33:03;;;;;;;29.23;15.47;;;2.70;99.20;;;;;;6215362;23;20063;-72
2024/01/31 03:35:28;;;;;;;30.60;15.13;;;2.70;99.40;;;;;;6215545;23;20008;-72
2024/01/31 03:37:54;;;;;;;26.27;14.23;;;2.70;99.30;;;;;;6215274;23;19996;-71
2024/01/31 03:40:20;;;;;;;27.30;13.60;;;2.70;99.40;;;;;;6215150;23;20012;-71
2024/01/31 03:42:46;;;;;;;24.37;14.10;;;2.80;99.40;;;;;;6214733;23;20012;-71
2024/01/31 03:45:11;;;;;;;30.10;14.23;;;2.80;99.50;;;;;;6214755;23;19997;-71
2024/01/31 03:47:37;;;;;;;26.60;14.60;;;2.80;99.60;;;;;;6215230;23;20004;-72
2024/01/31 03:50:06;;;;;;;26.77;15.47;;;2.80;99.90;;;;;;6214910;23;20007;-71
2024/01/31 03:52:35;;;;;;;28.50;15.90;;;2.80;99.90;;;;;;6214762;23;20004;-72
2024/01/31 03:55:01;;;;;;;27.47;17.13;;;2.80;99.90;;;;;;6189019;23;20000;-71
2024/01/31 03:57:27;;;;;;;30.63;17.03;;;2.80;99.90;;;;;;6215647;23;20009;-71
2024/01/31 03:59:52;;;;;;;29.30;16.60;;;2.80;99.90;;;;;;6214745;23;20457;-71
2024/01/31 04:02:18;;;;;;;27.40;16.13;;;2.70;99.90;;;;;;6214826;23;20012;-72
2024/01/31 04:04:44;;;;;;;36.63;16.67;;;2.80;99.90;;;;;;6215157;23;20011;-71
2024/01/31 04:07:10;;;;;;;29.73;15.87;;;2.80;99.90;;;;;;6215270;23;20031;-71
2024/01/31 04:09:35;;;;;;;29.80;14.97;;;2.70;99.90;;;;;;6214898;23;20034;-72
2024/01/31 04:12:01;;;;;;;28.83;15.80;;;2.70;99.90;;;;;;6214766;23;20001;-72
2024/01/31 04:14:27;;;;;;;31.27;14.50;;;2.60;99.90;;;;;;6215026;23;20016;-71
2024/01/31 04:16:53;;;;;;;27.00;15.20;;;2.60;99.90;;;;;;6214886;23;20000;-71
2024/01/31 04:19:18;;;;;;;26.30;14.97;;;2.50;99.90;;;;;;6215000;23;20004;-72
2024/01/31 04:21:44;;;;;;;23.57;14.17;;;2.40;99.90;;;;;;6214521;23;20022;-72
2024/01/31 04:24:10;;;;;;;27.30;15.13;;;2.40;99.90;;;;;;6214601;23;20012;-71
2024/01/31 04:26:43;;;;;;;27.77;15.60;;;2.30;99.90;;;;;;6214967;23;20000;-72
2024/01/31 04:29:08;;;;;;;;;;;2.30;99.90;;;;;;6215356;23;20001;-72
2024/01/31 04:31:34;;;;;;;28.47;14.67;;;2.30;99.90;;;;;;6214785;23;20022;-72
2024/01/31 04:34:00;;;;;;;23.17;14.10;;;2.30;99.90;;;;;;6214814;23;20434;-71
2024/01/31 04:36:26;;;;;;;24.50;14.47;;;2.30;99.90;;;;;;6214953;23;20081;-70
2024/01/31 04:38:52;;;;;;;24.40;13.97;;;2.20;99.90;;;;;;6215052;23;20017;-72
2024/01/31 04:41:17;;;;;;;28.13;14.33;;;2.30;99.90;;;;;;6214983;23;20001;-72
2024/01/31 04:43:43;;;;;;;24.87;14.07;;;2.20;99.90;;;;;;6213249;23;20004;-72
2024/01/31 04:46:13;;;;;;;22.77;14.13;;;2.20;99.90;;;;;;6215061;23;20000;-71
2024/01/31 04:48:39;;;;;;;26.87;14.57;;;2.20;99.90;;;;;;6214674;23;20001;-72
2024/01/31 04:51:05;;;;;;;29.97;14.83;;;2.20;99.90;;;;;;6214647;23;20024;-71
2024/01/31 04:53:31;;;;;;;27.37;13.50;;;2.20;99.90;;;;;;6214697;23;20399;-72
2024/01/31 04:55:57;;;;;;;32.50;14.03;;;2.20;99.90;;;;;;6214581;23;19997;-72
2024/01/31 04:58:23;;;;;;;26.80;14.73;;;2.20;99.90;;;;;;6217277;23;20071;-70
2024/01/31 05:00:48;;;;;;;27.77;14.53;;;2.20;99.90;;;;;;6190168;23;20070;-71
2024/01/31 05:03:14;;;;;;;28.13;14.77;;;2.20;99.90;;;;;;6216275;23;20040;-72
2024/01/31 05:05:40;;;;;;;30.50;14.57;;;2.10;99.90;;;;;;6216950;23;20000;-70
2024/01/31 05:08:06;;;;;;;25.37;14.43;;;2.10;99.90;;;;;;6216992;23;20005;-71
2024/01/31 05:10:34;;;;;;;28.30;15.33;;;2.10;99.90;;;;;;6216791;23;19997;-71
2024/01/31 05:13:01;;;;;;;38.00;23.03;;;2.10;99.90;;;;;;6216846;23;20026;-70
2024/01/31 05:15:26;;;;;;;35.27;18.73;;;2.10;99.90;;;;;;6216957;23;20327;-70
2024/01/31 05:17:52;;;;;;;28.17;15.10;;;2.10;99.90;;;;;;6216584;23;20023;-69
2024/01/31 05:20:18;;;;;;;26.90;15.37;;;2.20;99.90;;;;;;6216715;23;20019;-71
2024/01/31 05:22:43;;;;;;;30.20;16.37;;;2.20;99.90;;;;;;6216536;23;20004;-70
2024/01/31 05:25:09;;;;;;;29.93;16.17;;;2.20;99.90;;;;;;6216534;23;20001;-71
2024/01/31 05:27:36;;;;;;;26.90;15.40;;;2.10;99.90;;;;;;6216431;23;20001;-70
2024/01/31 05:30:03;;;;;;;28.27;15.80;;;2.10;99.90;;;;;;6216399;23;20492;-71
2024/01/31 05:32:31;;;;;;;26.80;16.40;;;2.10;99.90;;;;;;6215899;23;20001;-70
2024/01/31 05:34:57;;;;;;;26.20;15.33;;;2.10;99.90;;;;;;6216455;23;20005;-70
2024/01/31 05:37:22;;;;;;;27.60;16.17;;;2.10;99.90;;;;;;6216098;23;20423;-71
2024/01/31 05:39:48;;;;;;;30.77;15.87;;;2.20;99.90;;;;;;6216119;23;20075;-70
2024/01/31 05:42:14;;;;;;;28.33;15.53;;;2.10;99.90;;;;;;6189472;23;20012;-69
2024/01/31 05:44:40;;;;;;;30.17;14.53;;;2.10;99.90;;;;;;6216019;23;20015;-71
2024/01/31 05:47:05;;;;;;;27.33;14.80;;;2.10;99.90;;;;;;6216611;23;20026;-70
2024/01/31 05:49:31;;;;;;;33.63;15.77;;;2.10;99.90;;;;;;6216596;23;20076;-69
2024/01/31 05:51:57;;;;;;;28.60;14.90;;;2.20;99.90;;;;;;6216230;23;20004;-69
2024/01/31 05:54:23;;;;;;;29.33;15.27;;;2.10;99.90;;;;;;6216385;23;20076;-70
2024/01/31 05:56:51;;;;;;;27.67;14.63;;;2.10;99.90;;;;;;6216298;23;20007;-72
2024/01/31 05:59:16;;;;;;;32.73;16.53;;;2.10;99.90;;;;;;6216188;23;20001;-70
2024/01/31 06:01:42;;;;;;;30.07;15.67;;;2.10;99.90;;;;;;6216612;23;20011;-71
2024/01/31 06:04:09;;;;;;;28.73;15.67;;;2.10;99.90;;;;;;6216389;23;20039;-70
2024/01/31 06:06:35;;;;;;;35.20;16.30;;;2.10;99.90;;;;;;6216303;23;20001;-69
2024/01/31 06:09:00;;;;;;;32.53;16.60;;;2.00;99.90;;;;;;6215750;23;20001;-70
2024/01/31 06:11:26;;;;;;;35.50;17.10;;;2.00;99.90;;;;;;6215888;23;20011;-71
2024/01/31 06:13:52;;;;;;;32.27;15.70;;;2.00;99.90;;;;;;6216180;23;20004;-71
2024/01/31 06:16:18;;;;;;;38.10;18.63;;;2.00;99.90;;;;;;6216326;23;20007;-71
2024/01/31 06:18:43;;;;;;;47.63;19.50;;;1.90;99.90;;;;;;6216691;23;20434;-71
2024/01/31 06:21:09;;;;;;;51.07;20.00;;;1.90;99.90;;;;;;6215948;23;20339;-69
2024/01/31 06:23:35;;;;;;;59.00;20.13;;;2.00;99.90;;;;;;6215902;23;20009;-70
2024/01/31 06:26:02;;;;;;;96.07;21.53;;;2.00;99.90;;;;;;6215972;23;20364;-71
2024/01/31 06:28:28;;;;;;;70.70;22.10;;;2.00;99.90;;;;;;6215821;23;20040;-70
2024/01/31 06:31:03;;;;;;;76.07;22.23;;;1.90;99.90;;;;;;6215949;23;19997;-71
2024/01/31 06:33:31;;;;;;;62.00;22.40;;;1.90;99.90;;;;;;6216024;23;20355;-70
2024/01/31 06:35:58;;;;;;;55.57;24.40;;;1.80;99.90;;;;;;6215798;23;20005;-69
2024/01/31 06:38:24;;;;;;;71.30;24.87;;;1.80;99.90;;;;;;6215799;23;20004;-70
2024/01/31 06:40:49;;;;;;;61.67;23.60;;;1.80;99.90;;;;;;6215814;23;20051;-70
2024/01/31 06:43:15;;;;;;;65.33;21.63;;;1.80;99.90;;;;;;6215783;23;20017;-70
2024/01/31 06:45:41;;;;;;;55.07;20.60;;;1.80;99.90;;;;;;6214374;23;20071;-70
2024/01/31 06:48:09;;;;;;;65.17;22.23;;;1.80;99.90;;;;;;6215735;23;20395;-71
2024/01/31 06:50:35;;;;;;;47.53;21.53;;;1.80;99.90;;;;;;6188926;23;20005;-70
2024/01/31 06:53:01;;;;;;;43.30;18.03;;;1.80;99.90;;;;;;6211672;23;20011;-70
2024/01/31 06:55:28;;;;;;;54.87;19.10;;;1.80;99.90;;;;;;6215172;23;20019;-71
2024/01/31 06:57:56;;;;;;;59.77;17.07;;;1.70;99.90;;;;;;6198730;23;20015;-71
2024/01/31 07:00:22;;;;;;;41.03;17.57;;;1.70;99.90;;;;;;6215298;23;20076;-69
2024/01/31 07:02:49;;;;;;;55.17;19.57;;;1.70;99.90;;;;;;6215159;23;20004;-70
2024/01/31 07:05:16;;;;;;;66.77;18.97;;;1.70;99.90;;;;;;6216020;23;20016;-70
2024/01/31 07:07:43;;;;;;;77.97;19.23;;;1.70;99.90;;;;;;6215242;23;19997;-70
2024/01/31 07:10:10;;;;;;;33.10;15.30;;;1.80;99.90;;;;;;6215684;23;20001;-71
2024/01/31 07:12:38;;;;;;;31.10;16.03;;;1.80;99.90;;;;;;6215128;23;20000;-71
2024/01/31 07:15:05;;;;;;;34.97;17.80;;;1.90;99.90;;;;;;6215700;23;20103;-71
2024/01/31 07:17:31;;;;;;;40.53;17.50;;;1.90;99.90;;;;;;6215171;23;20005;-69
2024/01/31 07:19:56;;;;;;;33.47;16.87;;;1.90;99.90;;;;;;6208180;23;20012;-70
2024/01/31 07:22:22;;;;;;;36.13;16.87;;;2.00;99.90;;;;;;6184854;23;20335;-71
2024/01/31 07:24:48;;;;;;;34.93;16.07;;;2.00;99.90;;;;;;6184932;23;20338;-70
2024/01/31 07:27:14;;;;;;;47.23;16.87;;;2.10;99.90;;;;;;6184864;23;20076;-70
2024/01/31 07:29:43;;;;;;;32.83;16.03;;;2.10;99.90;;;;;;6185099;23;20100;-70
2024/01/31 07:32:09;;;;;;;44.87;16.63;;;2.10;99.90;;;;;;6185148;23;20424;-69
2024/01/31 07:34:35;;;;;;;43.30;16.43;;;2.10;99.90;;;;;;6184934;23;20028;-72
2024/01/31 07:37:01;;;;;;;38.93;16.67;;;2.20;99.90;;;;;;6185267;23;20028;-69
2024/01/31 07:39:27;;;;;;;37.07;15.97;;;2.20;99.90;;;;;;6185257;23;20037;-72
2024/01/31 07:41:53;;;;;;;47.57;15.73;;;2.30;99.90;;;;;;6184718;23;20009;-66
2024/01/31 07:44:19;;;;;;;33.43;15.97;;;2.30;99.90;;;;;;6184707;23;20013;-66
2024/01/31 07:46:45;;;;;;;30.23;15.90;;;2.40;99.90;;;;;;6185615;23;20008;-66
2024/01/31 07:49:11;;;;;;;35.67;15.77;;;2.50;99.90;;;;;;6184758;23;20011;-66
2024/01/31 07:51:44;;;;;;;50.03;13.87;;;2.50;99.90;;;;;;6184616;23;19997;-65
2024/01/31 07:54:10;;;;;;;33.67;13.77;;;2.60;99.90;;;;;;6184437;23;20025;-67
2024/01/31 07:56:36;;;;;;;36.67;15.53;;;2.70;99.90;;;;;;6158312;23;20005;-67
2024/01/31 07:59:02;;;;;;;42.27;15.00;;;2.70;99.90;;;;;;6185142;23;20139;-66
2024/01/31 08:01:27;;;;;;;57.60;15.33;;;2.70;99.90;;;;;;6184725;23;20436;-67
2024/01/31 08:03:53;;;;;;;55.27;15.63;;;2.70;99.90;;;;;;6184423;23;20072;-66
2024/01/31 08:06:19;;;;;;;45.20;15.33;;;2.70;99.90;;;;;;6184804;23;20005;-66
2024/01/31 08:08:45;;;;;;;33.77;14.93;;;2.80;99.90;;;;;;6184743;23;20061;-66
2024/01/31 08:11:13;;;;;;;45.77;15.37;;;2.80;99.90;;;;;;6184302;23;20042;-65
2024/01/31 08:13:42;;;;;;;41.17;15.73;;;2.80;99.90;;;;;;6183887;23;20036;-65
2024/01/31 08:16:09;;;;;;;38.00;15.67;;;2.90;99.90;;;;;;6183913;23;20028;-65
2024/01/31 08:18:35;;;;;;;37.23;15.40;;;2.90;99.90;;;;;;6184588;23;20054;-67
2024/01/31 08:21:00;;;;;;;37.80;16.97;;;3.00;99.90;;;;;;6183748;23;20041;-66
2024/01/31 08:26:03;;;;;;;39.70;16.60;;;3.20;99.90;;;;;;6166675;23;20025;-66
2024/01/31 08:28:29;;;;;;;29.40;16.57;;;3.30;99.90;;;;;;6214451;23;20009;-66
2024/01/31 08:30:55;;;;;;;33.10;16.80;;;3.30;99.90;;;;;;6214018;23;19996;-67
2024/01/31 08:33:21;;;;;;;31.40;16.80;;;3.40;99.90;;;;;;6214168;23;20055;-67
2024/01/31 08:35:46;;;;;;;35.37;14.67;;;3.40;99.90;;;;;;6214033;23;20008;-66
2024/01/31 08:38:12;;;;;;;40.10;15.57;;;3.50;99.90;;;;;;6214140;23;19996;-66
2024/01/31 08:40:39;;;;;;;30.83;13.43;;;3.60;99.90;;;;;;6213873;23;20009;-67
2024/01/31 08:43:04;;;;;;;31.63;13.53;;;3.70;99.90;;;;;;6213710;23;20019;-66
2024/01/31 08:45:30;;;;;;;27.40;13.23;;;3.80;99.90;;;;;;6214465;23;20000;-66
2024/01/31 08:47:56;;;;;;;35.03;13.13;;;3.90;99.90;;;;;;6215059;23;20032;-66
2024/01/31 08:50:21;;;;;;;32.23;13.73;;;4.00;99.90;;;;;;6215103;23;20005;-67
2024/01/31 08:52:48;;;;;;;37.03;13.40;;;4.00;99.90;;;;;;6214660;23;20005;-67
2024/01/31 08:55:14;;;;;;;24.43;13.37;;;4.10;99.90;;;;;;6215268;23;19996;-67
2024/01/31 08:57:40;;;;;;;33.77;14.70;;;4.20;99.90;;;;;;6214260;23;20454;-66
2024/01/31 09:00:06;;;;;;;29.47;14.70;;;4.30;99.90;;;;;;6213558;23;20526;-67
2024/01/31 09:02:32;;;;;;;27.20;12.63;;;4.30;99.90;;;;;;6214457;23;20139;-66
2024/01/31 09:04:59;;;;;;;31.60;13.67;;;4.40;99.90;;;;;;6214683;23;20025;-67
2024/01/31 09:07:25;;;;;;;21.47;12.57;;;4.50;99.90;;;;;;6214099;23;20063;-66
2024/01/31 09:09:51;;;;;;;28.00;13.13;;;4.60;99.90;;;;;;6214569;23;20031;-66
2024/01/31 09:12:16;;;;;;;33.53;13.27;;;4.60;99.90;;;;;;6214592;23;20004;-66
2024/01/31 09:14:42;;;;;;;25.60;13.83;;;4.70;99.90;;;;;;6214301;23;20074;-66
2024/01/31 09:17:08;;;;;;;36.83;15.50;;;4.80;99.90;;;;;;6214285;23;20005;-68
2024/01/31 09:19:33;;;;;;;36.77;16.00;;;4.90;99.90;;;;;;6213902;23;20001;-67
2024/01/31 09:21:59;;;;;;;38.00;16.10;;;4.90;99.90;;;;;;6214463;23;20001;-67
2024/01/31 09:24:25;;;;;;;41.57;15.93;;;5.00;99.90;;;;;;6214799;23;20017;-67
2024/01/31 09:26:51;;;;;;;34.10;13.90;;;5.10;99.90;;;;;;6214667;23;20008;-67
2024/01/31 09:29:17;;;;;;;26.80;14.17;;;5.20;99.90;;;;;;6214722;23;20009;-67
2024/01/31 09:31:43;;;;;;;39.37;13.43;;;5.20;99.90;;;;;;6214692;23;20021;-67
2024/01/31 09:34:08;;;;;;;33.57;14.87;;;5.30;99.90;;;;;;6214752;23;20074;-67
2024/01/31 09:36:34;;;;;;;27.80;13.70;;;5.40;99.90;;;;;;6214394;23;20008;-67
2024/01/31 09:39:00;;;;;;;28.37;14.90;;;5.40;99.90;;;;;;6214549;23;20008;-67
2024/01/31 09:41:26;;;;;;;29.80;13.13;;;5.50;99.90;;;;;;6214980;23;20304;-67
2024/01/31 09:43:53;;;;;;;22.77;13.03;;;5.60;99.90;;;;;;6215035;23;20498;-67
2024/01/31 09:46:19;;;;;;;23.00;11.30;;;5.60;99.90;;;;;;6216679;23;20477;-67
2024/01/31 09:48:45;;;;;;;27.83;11.87;;;5.70;98.50;;;;;;6216695;23;20004;-67
2024/01/31 09:51:12;;;;;;;24.60;12.13;;;5.80;98.40;;;;;;6215873;23;20077;-67
2024/01/31 09:53:38;;;;;;;19.73;11.60;;;5.80;99.60;;;;;;6216735;23;20398;-67
2024/01/31 09:56:05;;;;;;;31.80;12.40;;;5.90;99.90;;;;;;6216293;23;19996;-67
2024/01/31 09:58:31;;;;;;;25.77;12.03;;;6.00;98.10;;;;;;6216520;23;20358;-67
2024/01/31 10:01:00;;;;;;;24.67;12.27;;;6.10;97.30;;;;;;6216190;23;20000;-67
2024/01/31 10:03:26;;;;;;;27.50;12.17;;;6.20;96.50;;;;;;6213949;23;20021;-67
2024/01/31 10:05:52;;;;;;;26.80;11.10;;;6.20;96.20;;;;;;6213455;23;20005;-67
2024/01/31 10:08:18;;;;;;;23.17;11.50;;;6.30;95.50;;;;;;6214590;23;20316;-67
2024/01/31 10:10:44;;;;;;;22.10;11.30;;;6.40;93.70;;;;;;6216476;23;20000;-67
2024/01/31 10:13:09;;;;;;;32.97;10.60;;;6.50;95.60;;;;;;6216546;23;20008;-67
2024/01/31 10:15:36;;;;;;;17.13;9.83;;;6.50;98.80;;;;;;6216506;23;20000;-67
2024/01/31 10:18:03;;;;;;;17.70;9.27;;;6.60;96.80;;;;;;6216566;23;20008;-67
2024/01/31 10:20:30;;;;;;;21.30;8.37;;;6.70;95.60;;;;;;6190045;23;20031;-67
2024/01/31 10:22:57;;;;;;;17.40;8.27;;;6.80;93.90;;;;;;6216164;23;20470;-66
2024/01/31 10:25:25;;;;;;;20.87;8.33;;;6.90;91.30;;;;;;6216402;23;20035;-67
2024/01/31 10:27:52;;;;;;;19.97;7.50;;;7.00;91.60;;;;;;6216307;23;20019;-67
2024/01/31 10:30:18;;;;;;;17.63;7.07;;;7.10;95.80;;;;;;6216276;23;20005;-66
2024/01/31 10:32:45;;;;;;;19.80;6.53;;;7.20;94.30;;;;;;6215969;23;20395;-67
2024/01/31 10:35:12;;;;;;;16.23;5.93;;;7.20;92.40;;;;;;6215541;23;20126;-67
2024/01/31 10:37:38;;;;;;;13.90;6.00;;;7.30;91.20;;;;;;6189068;23;20005;-67
2024/01/31 10:40:11;;;;;;;14.77;6.50;;;7.40;90.00;;;;;;6215831;23;20004;-67
2024/01/31 10:42:38;;;;;;;12.77;5.60;;;7.50;87.10;;;;;;6215538;23;20080;-67
2024/01/31 10:45:05;;;;;;;11.40;5.23;;;7.60;85.60;;;;;;6215877;23;20088;-67
2024/01/31 10:47:31;;;;;;;11.17;4.90;;;7.70;83.10;;;;;;6216223;23;20323;-67
2024/01/31 10:49:58;;;;;;;14.00;4.97;;;7.70;82.20;;;;;;6189533;23;20032;-66
2024/01/31 10:52:30;;;;;;;12.07;5.63;;;7.80;81.30;;;;;;6216023;23;20000;-67
2024/01/31 10:54:59;;;;;;;11.90;4.78;;;7.90;77.40;;;;;;6216118;23;20435;-67
2024/01/31 10:57:26;;;;;;;10.27;4.80;;;8.00;75.40;;;;;;6215919;23;20005;-67
2024/01/31 10:59:55;;;;;;;9.50;4.77;;;8.00;75.10;;;;;;6215785;23;19997;-67
2024/01/31 11:02:31;;;;;;;8.63;4.47;;;8.10;74.40;;;;;;6214780;23;20080;-67
2024/01/31 11:05:01;;;;;;;12.57;5.20;;;8.20;73.10;;;;;;6214981;23;20429;-67
2024/01/31 11:07:27;;;;;;;7.93;4.80;;;8.30;75.40;;;;;;6215339;23;20035;-67
2024/01/31 11:09:54;;;;;;;8.97;4.27;;;8.40;76.80;;;;;;6215050;23;20323;-66
2024/01/31 11:12:20;;;;;;;8.00;4.63;;;8.50;74.40;;;;;;6215254;23;19996;-66
2024/01/31 11:14:47;;;;;;;9.57;4.60;;;8.60;73.50;;;;;;6215558;23;20004;-67
2024/01/31 11:17:22;;;;;;;12.87;5.13;;;8.70;73.90;;;;;;6215413;23;20000;-67
2024/01/31 11:19:55;;;;;;;8.73;4.83;;;8.70;72.90;;;;;;6214989;23;20299;-67
2024/01/31 11:22:21;;;;;;;9.37;4.17;;;8.80;71.10;;;;;;6188362;23;20011;-67
2024/01/31 11:24:52;;;;;;;16.80;3.77;;;8.90;71.10;;;;;;6214819;23;20012;-67
2024/01/31 11:27:19;;;;;;;7.17;3.40;;;9.00;70.10;;;;;;6214437;23;20020;-67
2024/01/31 11:29:49;;;;;;;8.27;4.50;;;9.00;69.60;;;;;;6214719;23;20001;-67
2024/01/31 11:32:15;;;;;;;8.93;4.43;;;9.10;70.10;;;;;;6188538;23;20024;-67
2024/01/31 11:34:42;;;;;;;10.50;5.03;;;9.20;70.90;;;;;;6214537;23;20086;-67
2024/01/31 11:37:08;;;;;;;7.93;4.33;;;9.30;70.90;;;;;;6214953;23;20427;-67
2024/01/31 11:39:34;;;;;;;7.53;4.40;;;9.30;71.70;;;;;;6214733;23;20000;-67
2024/01/31 11:42:00;;;;;;;8.40;4.43;;;;;;;;;;6214792;23;20005;-67
2024/01/31 11:44:29;;;;;;;9.33;4.60;;;9.40;64.80;;;;;;6214832;23;20086;-67
2024/01/31 11:46:55;;;;;;;11.10;4.47;;;9.50;65.70;;;;;;6214807;23;20003;-67
2024/01/31 11:49:22;;;;;;;11.50;4.90;;;9.60;65.40;;;;;;6214907;23;20001;-67
2024/01/31 11:51:48;;;;;;;8.07;3.63;;;9.60;63.90;;;;;;6214582;23;20427;-67
2024/01/31 11:54:14;;;;;;;11.07;4.20;;;9.70;63.30;;;;;;6214615;23;20004;-67
2024/01/31 11:56:41;;;;;;;6.23;4.30;;;9.80;63.30;;;;;;6214652;23;20032;-67
2024/01/31 11:59:07;;;;;;;8.33;4.80;;;9.90;63.60;;;;;;6213779;23;20494;-67
2024/01/31 12:01:34;;;;;;;12.63;4.70;;;10.00;63.80;;;;;;6213339;23;19997;-67
2024/01/31 12:04:04;;;;;;;13.83;5.27;;;10.00;63.60;;;;;;6214595;23;20024;-67
2024/01/31 12:06:30;;;;;;;8.80;4.43;;;10.10;63.90;;;;;;6215035;23;20005;-67
2024/01/31 12:08:56;;;;;;;8.13;4.47;;;10.20;63.90;;;;;;6187500;23;20051;-67
2024/01/31 12:11:23;;;;;;;7.90;4.27;;;10.20;63.30;;;;;;6214900;23;20112;-67
2024/01/31 12:13:49;;;;;;;9.03;4.43;;;10.20;62.50;;;;;;6214591;23;20007;-67
2024/01/31 12:16:15;;;;;;;5.50;3.60;;;10.30;63.60;;;;;;6215162;23;20005;-67
2024/01/31 12:18:40;;;;;;;9.87;4.27;;;10.30;63.00;;;;;;6215067;23;20008;-67
2024/01/31 12:21:10;;;;;;;8.87;4.17;;;10.30;63.00;;;;;;6214821;23;20009;-67
2024/01/31 12:23:36;;;;;;;10.63;4.27;;;10.30;63.00;;;;;;6214653;23;20088;-67
2024/01/31 12:26:02;;;;;;;8.43;4.87;;;10.40;63.50;;;;;;6214344;23;20088;-67
2024/01/31 12:28:28;;;;;;;13.17;6.10;;;10.40;63.20;;;;;;6214784;23;20036;-67
2024/01/31 12:30:53;;;;;;;22.20;11.50;;;10.50;62.90;;;;;;6214455;23;20438;-67
2024/01/31 12:33:20;;;;;;;16.33;7.50;;;10.50;62.60;;;;;;6214036;23;20007;-67
2024/01/31 12:35:46;;;;;;;10.33;5.30;;;10.50;62.20;;;;;;6214215;23;20001;-67
2024/01/31 12:38:15;;;;;;;11.93;6.77;;;10.50;62.00;;;;;;6214766;23;20000;-67